createdAt,value
2022-09-23T00:03:07.481Z,101076.94
2022-09-23T00:13:11.027Z,101064.34
2022-09-23T00:23:14.217Z,100990.66
2022-09-23T00:33:17.160Z,101053.03
2022-09-23T00:43:20.573Z,101055.22
2022-09-23T00:53:26.770Z,101045.22
2022-09-23T01:03:29.854Z,101039.59
2022-09-23T01:13:38.415Z,101037.94
2022-09-23T01:24:08.975Z,101045.16
2022-09-23T01:34:16.315Z,101039.12
2022-09-23T01:44:19.094Z,101040.56
2022-09-23T01:54:38.830Z,101045.38
2022-09-23T02:05:26.092Z,101032.63
2022-09-23T02:15:35.084Z,101038.13
2022-09-23T02:25:56.996Z,101032.56
2022-09-23T02:36:10.106Z,101039.44
2022-09-23T02:46:13.410Z,101039.00
2022-09-23T02:56:22.054Z,101034.09
2022-09-23T03:06:46.662Z,101047.28
2022-09-23T03:17:41.742Z,101046.97
2022-09-23T03:27:45.691Z,101042.47
2022-09-23T03:37:57.273Z,101036.72
2022-09-23T03:48:01.000Z,101048.91
2022-09-23T03:58:04.864Z,101044.16
2022-09-23T04:08:07.733Z,101049.75
2022-09-23T04:18:10.652Z,101040.78
2022-09-23T04:28:13.749Z,101038.94
2022-09-23T04:38:16.633Z,101051.25
2022-09-23T04:48:19.928Z,101057.69
2022-09-23T04:58:23.147Z,101059.31
2022-09-23T05:08:26.474Z,101049.19
2022-09-23T05:18:36.921Z,101053.97
2022-09-23T05:28:40.575Z,101060.31
2022-09-23T05:38:43.756Z,101075.44
2022-09-23T05:48:47.321Z,101078.88
2022-09-23T05:58:51.947Z,101089.03
2022-09-23T06:08:54.917Z,101092.44
2022-09-23T06:19:03.051Z,101084.22
2022-09-23T06:29:12.133Z,101087.00
2022-09-23T06:39:15.655Z,101077.31
2022-09-23T06:49:21.633Z,101085.41
2022-09-23T06:59:25.115Z,101100.16
2022-09-23T07:09:28.066Z,101102.22
2022-09-23T07:19:31.073Z,101102.13
2022-09-23T07:29:44.770Z,101103.91
2022-09-23T07:39:51.148Z,101106.78
2022-09-23T07:49:54.224Z,101105.53
2022-09-23T07:59:57.420Z,101123.06
2022-09-23T08:10:01.833Z,101121.09
2022-09-23T08:20:05.463Z,101109.44
2022-09-23T08:30:09.020Z,101110.25
2022-09-23T08:40:15.096Z,101107.87
2022-09-23T08:50:28.704Z,101105.31
2022-09-23T09:00:41.411Z,101098.50
2022-09-23T09:10:49.168Z,101088.13
2022-09-23T09:21:11.523Z,101077.91
2022-09-23T09:31:22.243Z,101073.72
2022-09-23T09:41:31.264Z,101065.50
2022-09-23T09:51:35.740Z,101047.44
2022-09-23T10:01:39.617Z,101042.53
2022-09-23T10:12:02.026Z,101045.75
2022-09-23T10:22:16.835Z,101047.06
2022-09-23T10:32:31.831Z,101047.53
2022-09-23T10:42:56.789Z,101049.56
2022-09-23T10:53:12.543Z,101045.22
2022-09-23T11:09:06.933Z,101048.31
2022-09-23T11:19:41.083Z,101046.56
2022-09-23T11:29:55.798Z,101037.50
2022-09-23T11:40:15.655Z,101015.69
2022-09-23T11:50:49.104Z,101016.75
2022-09-23T12:01:13.590Z,101017.00
2022-09-23T12:11:51.306Z,101013.84
2022-09-23T12:22:14.414Z,101014.16
2022-09-23T12:32:21.628Z,101008.16
2022-09-23T12:42:30.141Z,100995.44
2022-09-23T12:52:36.120Z,100992.53
2022-09-23T13:02:47.153Z,100973.38
2022-09-23T13:12:54.230Z,100967.69
2022-09-23T13:23:16.027Z,100951.78
2022-09-23T13:33:41.803Z,100949.81
2022-09-23T13:43:59.784Z,100948.06
2022-09-23T13:54:30.074Z,100926.03
2022-09-23T14:04:51.351Z,100928.19
2022-09-23T14:14:57.392Z,100926.38
2022-09-23T14:25:00.497Z,100930.88
2022-09-23T14:35:04.637Z,100917.38
2022-09-23T14:45:15.490Z,100922.47
2022-09-23T14:55:18.991Z,100917.28
2022-09-23T15:05:31.005Z,100926.00
2022-09-23T15:15:35.729Z,100908.09
2022-09-23T15:25:41.685Z,100907.91
2022-09-23T15:35:48.990Z,100902.66
2022-09-23T15:45:57.306Z,100900.22
2022-09-23T15:56:00.606Z,100914.59
2022-09-23T16:06:04.271Z,100902.94
2022-09-23T16:27:17.649Z,100919.22
2022-09-23T16:37:21.391Z,100911.78
2022-09-23T16:47:24.504Z,100908.72
2022-09-23T16:57:28.056Z,100911.22
2022-09-23T17:07:32.146Z,100913.38
2022-09-23T17:17:37.611Z,100913.34
2022-09-23T17:27:40.917Z,100905.94
2022-09-23T17:37:43.907Z,100909.25
2022-09-23T17:47:52.295Z,100905.97
2022-09-23T17:57:55.241Z,100906.22
2022-09-23T18:07:58.200Z,100920.69
2022-09-23T18:18:01.139Z,100932.28
2022-09-23T18:28:04.218Z,100930.75
2022-09-23T18:38:07.164Z,100928.44
2022-09-23T18:48:28.745Z,100941.63
2022-09-23T18:58:32.535Z,100930.06
2022-09-23T19:08:36.791Z,100931.16
2022-09-23T19:18:41.673Z,100924.28
2022-09-23T19:28:56.373Z,100925.31
2022-09-23T19:39:06.083Z,100922.44
2022-09-23T19:49:09.364Z,100921.00
2022-09-23T19:59:15.248Z,100921.06
2022-09-23T20:09:21.704Z,100921.75
2022-09-23T20:19:25.066Z,100937.47
2022-09-23T20:29:28.387Z,100940.16
2022-09-23T20:39:31.927Z,100947.00
2022-09-23T20:49:36.491Z,100947.66
2022-09-23T20:59:40.667Z,100924.53
2022-09-23T21:09:43.664Z,100945.69
2022-09-23T21:19:46.826Z,100944.88
2022-09-23T21:29:51.578Z,100948.44
2022-09-23T21:40:13.208Z,100958.41
2022-09-23T21:50:16.350Z,100960.00
2022-09-23T22:00:19.295Z,100963.38
2022-09-23T22:10:22.218Z,100970.62
2022-09-23T22:20:25.555Z,100978.81
2022-09-23T22:30:47.375Z,100973.03
2022-09-23T22:40:50.321Z,100965.66
2022-09-23T22:50:53.510Z,100976.91
2022-09-23T23:01:00.094Z,100957.31
2022-09-23T23:11:10.130Z,100951.81
2022-09-23T23:21:15.353Z,100960.59
2022-09-23T23:31:20.337Z,100958.06
2022-09-23T23:41:23.725Z,100945.03
2022-09-23T23:51:27.480Z,100939.22
